Time;durP1;ratioP1;P1;durP2;ratioP2;P2;SDS_P1;SDS_P2;PMS_P1;PMS_P2;Temp;Humidity;BMP_temperature;BMP_pressure;BME280_temperature;BME280_humidity;BME280_pressure;Samples;Min_cycle;Max_cycle;Signal;HPM_P1;HPM_P2
2022/08/07 00:01:01;;;;;;;;;2.00;2.00;;;;;16.91;58.64;102728.66;5031561;28;9033;-66
2022/08/07 00:03:48;;;;;;;;;5.00;3.00;;;;;16.88;59.00;102728.19;5031210;28;9074;-65
2022/08/07 00:06:14;;;;;;;;;3.00;3.00;;;;;16.87;58.96;102723.81;5032062;28;9922;-65
2022/08/07 00:08:41;;;;;;;;;3.67;3.00;;;;;16.84;59.04;102716.00;5032371;28;8988;-66
2022/08/07 00:11:09;;;;;;;;;3.00;3.00;;;;;16.80;59.09;102715.53;5027256;28;9172;-66
2022/08/07 00:13:37;;;;;;;;;5.00;2.33;;;;;16.75;59.06;102715.28;5011058;28;9009;-66
2022/08/07 00:16:11;;;;;;;;;3.00;3.00;;;;;16.73;59.27;102722.78;5021807;28;9292;-65
2022/08/07 00:18:47;;;;;;;;;5.00;5.00;;;;;16.70;59.75;102721.25;5028295;28;9810;-65
2022/08/07 00:21:13;;;;;;;;;5.00;5.00;;;;;16.67;59.55;102712.63;5036813;28;9251;-66
2022/08/07 00:24:00;;;;;;;;;3.67;3.67;;;;;16.65;59.83;102712.84;5051477;28;9173;-66
2022/08/07 00:26:26;;;;;;;;;2.67;2.67;;;;;16.61;59.82;102708.81;5022383;28;9192;-65
2022/08/07 00:29:14;;;;;;;;;1.00;1.00;;;;;16.59;59.85;102710.84;5049630;28;9277;-66
2022/08/07 00:31:41;;;;;;;;;6.00;4.00;;;;;16.59;59.96;102713.56;5036394;28;9222;-66
2022/08/07 00:34:08;;;;;;;;;4.00;3.00;;;;;16.55;59.84;102718.53;5035790;28;9342;-65
2022/08/07 00:36:36;;;;;;;;;5.00;3.00;;;;;16.54;60.11;102716.03;5035802;28;9158;-64
2022/08/07 00:39:09;;;;;;;;;5.00;3.00;;;;;16.52;60.21;102709.91;5050668;28;9088;-67
2022/08/07 00:41:48;;;;;;;;;3.00;3.00;;;;;16.49;60.04;102713.03;5035261;28;9309;-67
2022/08/07 00:44:27;;;;;;;;;4.00;4.00;;;;;16.46;60.26;102713.41;5033452;28;9219;-66
2022/08/07 00:46:54;;;;;;;;;3.00;3.00;;;;;16.45;60.59;102718.00;5029700;28;9971;-66
2022/08/07 00:49:21;;;;;;;;;3.00;3.00;;;;;16.45;60.16;102712.56;5035593;28;9147;-65
2022/08/07 00:52:08;;;;;;;;;6.00;3.67;;;;;16.43;60.19;102711.03;5026453;28;9207;-66
2022/08/07 00:54:35;;;;;;;;;4.00;4.00;;;;;16.41;60.42;102700.38;5034074;28;9318;-66
2022/08/07 00:57:06;;;;;;;;;5.00;2.67;;;;;16.39;60.42;102710.56;5050384;28;9226;-65
2022/08/07 00:59:36;;;;;;;;;3.00;3.00;;;;;16.37;60.63;102706.38;5035034;28;9215;-66
2022/08/07 01:02:06;;;;;;;;;3.00;3.00;;;;;16.34;60.67;102699.44;5026480;28;9236;-65
2022/08/07 01:04:52;;;;;;;;;4.00;4.00;;;;;16.31;60.57;102703.34;5042871;28;9142;-66
2022/08/07 01:07:24;;;;;;;;;4.00;4.00;;;;;16.30;60.99;102692.69;5030326;28;9160;-64
2022/08/07 01:09:53;;;;;;;;;4.00;4.00;;;;;16.26;60.93;102704.94;5025074;28;9316;-65
2022/08/07 01:12:33;;;;;;;;;4.33;4.33;;;;;16.24;60.76;102694.25;5035360;28;9292;-65
2022/08/07 01:15:01;;;;;;;;;6.67;5.00;;;;;16.23;61.05;102697.16;5033527;28;9042;-64
2022/08/07 01:17:30;;;;;;;;;2.33;2.33;;;;;16.21;61.00;102693.81;5008992;28;9210;-66
2022/08/07 01:20:05;;;;;;;;;4.00;4.00;;;;;16.19;61.28;102701.28;5045988;28;9352;-66
2022/08/07 01:22:35;;;;;;;;;3.00;3.00;;;;;16.16;61.11;102691.63;5031319;28;9144;-66
2022/08/07 01:25:02;;;;;;;;;4.00;4.00;;;;;16.13;61.36;102688.47;5025226;28;9332;-65
2022/08/07 01:27:49;;;;;;;;;3.67;3.67;;;;;16.11;61.67;102688.63;5033688;28;9294;-66
2022/08/07 01:30:17;;;;;;;;;4.00;4.00;;;;;16.10;61.60;102694.25;5022772;28;9295;-66
2022/08/07 01:32:45;;;;;;;;;3.00;3.00;;;;;16.08;61.46;102694.41;5028143;28;9437;-66
2022/08/07 01:35:12;;;;;;;;;3.00;3.00;;;;;16.07;61.59;102693.59;5032253;28;9303;-65
2022/08/07 01:37:44;;;;;;;;;3.00;3.00;;;;;16.06;61.61;102694.63;5034559;28;9294;-66
2022/08/07 01:40:11;;;;;;;;;2.67;2.67;;;;;16.06;61.54;102691.91;5030616;28;9287;-65
2022/08/07 01:42:50;;;;;;;;;4.25;3.25;;;;;16.04;61.65;102687.66;5049384;28;10087;-66
2022/08/07 01:45:25;;;;;;;;;6.00;3.67;;;;;15.99;61.71;102682.81;5039701;28;9404;-68
2022/08/07 01:48:09;;;;;;;;;5.67;3.33;;;;;15.98;61.96;102678.41;5047212;28;9388;-67
2022/08/07 01:51:03;;;;;;;;;6.00;6.00;;;;;15.97;61.91;102690.31;5046675;28;9298;-66
2022/08/07 01:53:53;;;;;;;;;2.67;2.67;;;;;15.95;62.22;102677.94;5050328;28;10177;-65
2022/08/07 01:56:51;;;;;;;;;4.33;3.00;;;;;15.94;62.24;102679.81;5027213;28;9219;-65
2022/08/07 01:59:26;;;;;;;;;3.00;3.00;;;;;15.93;62.16;102680.84;5046056;28;9410;-66
2022/08/07 02:02:05;;;;;;;;;2.67;2.67;;;;;15.91;62.05;102684.75;5015132;28;9169;-67
2022/08/07 02:05:05;;;;;;;;;3.00;3.00;;;;;15.90;62.51;102675.78;5021095;28;9295;-66
2022/08/07 02:07:39;;;;;;;;;5.25;5.25;;;;;15.89;62.27;102678.69;5033745;28;9235;-67
2022/08/07 02:10:24;;;;;;;;;8.25;4.75;;;;;15.85;62.26;102677.38;5030991;28;9534;-66
2022/08/07 02:12:54;;;;;;;;;5.00;5.00;;;;;15.81;62.57;102676.88;5038946;28;9547;-67
2022/08/07 02:15:30;;;;;;;;;3.00;3.00;;;;;15.80;62.88;102673.31;5029222;28;9352;-66
2022/08/07 02:18:01;;;;;;;;;5.00;3.00;;;;;15.80;62.72;102672.50;5033286;28;9309;-67
2022/08/07 02:20:31;;;;;;;;;6.00;5.00;;;;;15.79;62.82;102674.34;5030219;28;9294;-67
2022/08/07 02:23:02;;;;;;;;;4.75;4.75;;;;;15.79;62.54;102668.91;5016848;28;10082;-67
2022/08/07 02:25:31;;;;;;;;;1.67;1.67;;;;;15.77;62.49;102672.84;5041404;28;9453;-66
2022/08/07 02:28:21;;;;;;;;;2.67;2.67;;;;;15.74;62.58;102668.63;5026684;28;9469;-66
2022/08/07 02:30:55;;;;;;;;;7.25;7.25;;;;;15.73;62.74;102668.81;5031627;28;9402;-67
2022/08/07 02:33:24;;;;;;;;;4.00;3.00;;;;;15.73;63.03;102669.66;5033590;28;9467;-67
2022/08/07 02:36:15;;;;;;;;;5.33;3.00;;;;;15.73;63.13;102669.66;5033015;28;10466;-66
2022/08/07 02:39:05;;;;;;;;;4.75;4.00;;;;;15.73;62.76;102671.53;5033127;28;9375;-67
2022/08/07 02:41:52;;;;;;;;;3.67;2.67;;;;;15.71;62.66;102660.84;5034244;28;9440;-67
2022/08/07 02:44:24;;;;;;;;;3.25;3.25;;;;;15.70;62.77;102669.19;5048413;28;9514;-65
2022/08/07 02:46:55;;;;;;;;;4.00;4.00;;;;;15.67;62.86;102669.53;5022171;28;10057;-67
2022/08/07 02:49:23;;;;;;;;;6.00;4.33;;;;;15.65;63.34;102668.88;5048523;28;9475;-65
2022/08/07 02:52:16;;;;;;;;;5.00;5.00;;;;;15.63;62.96;102660.88;5032960;28;9454;-67
2022/08/07 02:54:49;;;;;;;;;3.00;3.00;;;;;15.64;63.00;102659.88;5029330;28;9645;-66
2022/08/07 02:57:22;;;;;;;;;3.00;3.00;;;;;15.62;63.26;102656.47;5024108;28;9248;-67
2022/08/07 02:59:58;;;;;;;;;4.00;4.00;;;;;15.62;62.93;102661.91;5030909;28;9388;-66
2022/08/07 03:02:34;;;;;;;;;3.00;2.33;;;;;15.61;63.02;102671.09;5010237;28;10101;-67
2022/08/07 03:05:01;;;;;;;;;4.25;4.00;;;;;15.59;62.97;102656.84;5049295;28;9509;-67
2022/08/07 03:07:33;;;;;;;;;5.75;3.50;;;;;15.55;63.34;102650.94;5049072;28;10141;-67
2022/08/07 03:10:21;;;;;;;;;5.00;5.00;;;;;15.53;63.40;102658.44;5021316;28;9541;-67
2022/08/07 03:12:57;;;;;;;;;2.00;2.00;;;;;15.53;63.35;102663.00;5028661;28;9244;-67
2022/08/07 03:15:26;;;;;;;;;3.67;3.67;;;;;15.51;63.30;102660.47;5041884;28;9984;-66
2022/08/07 03:18:15;;;;;;;;;2.33;2.33;;;;;15.48;63.23;102651.88;5030963;28;9305;-66
2022/08/07 03:20:46;;;;;;;;;5.67;5.00;;;;;15.47;63.54;102653.72;5032401;28;9295;-66
2022/08/07 03:23:14;;;;;;;;;5.00;2.50;;;;;15.45;63.35;102658.50;5028782;28;9380;-67
2022/08/07 03:25:45;;;;;;;;;4.00;4.00;;;;;15.45;63.19;102655.78;5027482;28;9457;-67
2022/08/07 03:28:24;;;;;;;;;8.67;5.00;;;;;15.45;63.71;102654.94;5041128;28;9528;-67
2022/08/07 03:31:18;;;;;;;;;5.33;5.00;;;;;15.42;63.37;102652.59;5032191;28;9378;-66
2022/08/07 03:34:01;;;;;;;;;4.00;2.75;;;;;15.40;63.24;102650.06;5043801;28;9522;-66
2022/08/07 03:36:33;;;;;;;;;5.00;3.00;;;;;15.40;63.81;102655.50;5025205;28;9519;-67
2022/08/07 03:39:06;;;;;;;;;4.75;4.00;;;;;15.40;63.77;102654.66;5037367;28;9489;-67
2022/08/07 03:41:36;;;;;;;;;3.00;3.00;;;;;15.39;63.60;102647.50;5048134;28;9388;-67
2022/08/07 03:44:13;;;;;;;;;3.50;3.00;;;;;15.39;63.64;102645.63;5025809;28;9384;-67
2022/08/07 03:46:41;;;;;;;;;7.75;5.00;;;;;15.38;63.57;102648.53;5041886;28;10296;-67
2022/08/07 03:49:29;;;;;;;;;3.00;3.00;;;;;15.36;63.93;102646.03;5032181;28;9749;-66
2022/08/07 03:51:58;;;;;;;;;3.00;3.00;;;;;15.34;63.81;102643.47;5031318;28;9516;-67
2022/08/07 03:54:28;;;;;;;;;6.25;6.25;;;;;15.32;64.04;102642.00;5027394;28;9378;-66
2022/08/07 03:57:15;;;;;;;;;3.25;3.25;;;;;15.30;64.24;102644.88;5039512;28;9615;-66
2022/08/07 04:00:02;;;;;;;;;6.75;5.50;;;;;15.27;64.12;102637.13;5030787;28;9571;-66
2022/08/07 04:02:43;;;;;;;;;3.00;3.00;;;;;15.25;64.40;102638.31;5013125;28;9545;-66
2022/08/07 04:05:24;;;;;;;;;4.00;4.00;;;;;15.28;64.34;102637.94;5037590;28;9622;-66
2022/08/07 04:08:12;;;;;;;;;3.33;3.00;;;;;15.26;64.53;102640.81;5030776;28;9448;-67
2022/08/07 04:10:47;;;;;;;;;5.25;4.00;;;;;15.25;64.31;102639.16;5042073;28;9369;-67
2022/08/07 04:13:34;;;;;;;;;5.00;4.00;;;;;15.24;64.47;102642.06;5010894;28;9472;-67
2022/08/07 04:16:21;;;;;;;;;6.25;4.00;;;;;15.22;64.62;102639.50;5028740;28;9448;-67
2022/08/07 04:18:59;;;;;;;;;4.75;4.75;;;;;15.22;64.85;102642.22;5013045;28;9590;-66
2022/08/07 04:21:31;;;;;;;;;3.50;3.50;;;;;15.21;64.58;102637.81;5021168;28;9606;-67
2022/08/07 04:24:01;;;;;;;;;5.67;4.33;;;;;15.20;64.39;102643.44;5033859;28;9453;-66
2022/08/07 04:26:33;;;;;;;;;6.50;6.50;;;;;15.18;64.47;102631.91;5008340;28;9386;-67
2022/08/07 04:28:59;;;;;;;;;4.33;4.33;;;;;15.16;64.85;102636.69;5032531;28;9455;-66
2022/08/07 04:31:29;;;;;;;;;5.00;3.00;;;;;15.16;64.78;102639.41;5031442;28;9304;-67
2022/08/07 04:34:17;;;;;;;;;5.00;5.00;;;;;15.16;65.03;102637.53;5047689;28;9376;-66
2022/08/07 04:36:53;;;;;;;;;3.75;3.75;;;;;15.15;64.59;102638.56;5031628;28;9531;-67
2022/08/07 04:39:21;;;;;;;;;3.75;3.00;;;;;15.14;64.92;102647.69;5030243;28;9453;-66
2022/08/07 04:41:52;;;;;;;;;4.25;3.00;;;;;15.14;65.08;102646.84;5048554;28;9457;-67
2022/08/07 04:44:19;;;;;;;;;6.00;5.00;;;;;15.16;65.10;102661.09;5044197;28;9382;-66
2022/08/07 04:47:04;;;;;;;;;3.50;3.00;;;;;15.18;64.96;102650.91;5012033;28;9456;-67
2022/08/07 04:49:55;;;;;;;;;6.00;5.50;;;;;15.21;64.98;102658.69;5045428;28;9493;-66
2022/08/07 04:52:40;;;;;;;;;5.00;3.67;;;;;15.21;65.31;102664.94;5027763;28;9373;-66
2022/08/07 04:55:27;;;;;;;;;5.33;3.33;;;;;15.24;65.38;102672.72;5045872;28;9309;-66
2022/08/07 04:58:38;;;;;;;;;3.33;3.33;;;;;15.27;65.30;102658.81;5030167;28;9321;-66
2022/08/07 05:01:45;;;;;;;;;4.00;3.00;;;;;15.31;65.31;102661.97;5030544;28;9317;-66
2022/08/07 05:04:24;;;;;;;;;5.67;2.00;;;;;15.33;65.62;102666.22;5029763;28;9556;-66
2022/08/07 05:07:02;;;;;;;;;3.00;3.00;;;;;15.36;65.61;102667.72;5036848;28;9464;-66
2022/08/07 05:09:59;;;;;;;;;4.00;4.00;;;;;15.46;65.29;102662.88;5034739;28;9454;-66
2022/08/07 05:12:38;;;;;;;;;5.00;5.00;;;;;15.50;65.35;102666.09;5034410;28;9354;-66
2022/08/07 05:15:25;;;;;;;;;3.67;2.00;;;;;15.52;65.08;102664.88;5049835;28;10069;-67
2022/08/07 05:18:01;;;;;;;;;3.00;3.00;;;;;15.55;65.54;102667.22;5034367;28;9390;-67
2022/08/07 05:20:46;;;;;;;;;6.00;4.00;;;;;15.57;65.53;102676.03;5029260;28;9240;-66
2022/08/07 05:23:19;;;;;;;;;3.00;3.00;;;;;15.61;65.31;102678.41;5023689;28;9354;-65
2022/08/07 05:25:58;;;;;;;;;4.33;4.33;;;;;15.64;65.30;102678.88;5047979;28;9270;-66
2022/08/07 05:28:49;;;;;;;;;4.33;3.67;;;;;15.68;65.13;102674.78;5049894;28;9432;-66
2022/08/07 05:31:24;;;;;;;;;3.67;3.67;;;;;15.73;65.08;102674.25;5042488;28;9282;-66
2022/08/07 05:34:02;;;;;;;;;4.67;4.33;;;;;15.75;65.31;102667.59;5025206;28;9332;-66
2022/08/07 05:36:40;;;;;;;;;5.33;5.33;;;;;15.77;65.22;102657.41;5023565;28;9528;-65
2022/08/07 05:39:18;;;;;;;;;5.00;5.00;;;;;15.80;65.45;102662.47;5033255;28;9423;-66
2022/08/07 05:42:08;;;;;;;;;2.67;2.67;;;;;15.85;65.14;102661.06;5034019;28;9383;-66
2022/08/07 05:44:40;;;;;;;;;3.00;3.00;;;;;15.90;65.42;102674.94;5029966;28;9213;-66
2022/08/07 05:47:19;;;;;;;;;2.00;2.00;;;;;15.95;64.91;102669.78;5013280;28;9225;-66
2022/08/07 05:50:05;;;;;;;;;5.00;3.00;;;;;16.01;64.84;102677.19;5019857;28;9806;-66
2022/08/07 05:52:32;;;;;;;;;3.00;3.00;;;;;16.06;64.76;102672.88;5030242;28;9157;-66
2022/08/07 05:55:01;;;;;;;;;2.67;2.67;;;;;16.12;64.35;102674.00;5033023;28;9318;-65
2022/08/07 05:57:39;;;;;;;;;5.33;3.00;;;;;16.17;64.42;102670.75;5032957;28;9180;-66
2022/08/07 06:00:09;;;;;;;;;3.00;3.00;;;;;16.22;64.36;102674.59;5007084;28;9787;-66
2022/08/07 06:02:50;;;;;;;;;3.00;2.67;;;;;16.27;64.22;102668.59;5012895;28;9922;-66
2022/08/07 06:05:19;;;;;;;;;3.00;3.00;;;;;16.32;64.07;102669.69;5022154;28;9965;-66
2022/08/07 06:07:51;;;;;;;;;2.67;2.67;;;;;16.37;63.99;102668.31;5022482;28;9317;-65
2022/08/07 06:10:40;;;;;;;;;5.33;3.33;;;;;16.44;63.90;102675.50;5032120;28;9181;-66
2022/08/07 06:13:09;;;;;;;;;3.00;3.00;;;;;16.56;63.80;102675.88;5048591;28;9313;-66
2022/08/07 06:15:41;;;;;;;;;7.00;4.00;;;;;16.67;63.51;102678.13;5030926;28;9231;-66
2022/08/07 06:18:16;;;;;;;;;2.00;2.00;;;;;16.79;63.04;102690.22;5031887;28;9133;-65
2022/08/07 06:20:44;;;;;;;;;3.00;3.00;;;;;16.90;62.82;102693.50;5031796;28;9034;-66
2022/08/07 06:23:33;;;;;;;;;4.00;4.00;;;;;16.98;62.04;102682.50;5026438;28;9184;-66
2022/08/07 06:26:20;;;;;;;;;4.00;3.33;;;;;17.08;61.60;102677.59;5027347;28;8996;-66
2022/08/07 06:28:55;;;;;;;;;5.33;4.33;;;;;17.12;60.82;102687.03;5022299;28;9028;-66
2022/08/07 06:31:26;;;;;;;;;5.33;4.33;;;;;17.16;60.29;102682.06;5031833;28;9146;-65
2022/08/07 06:34:12;;;;;;;;;3.00;3.00;;;;;17.22;59.85;102681.31;5033450;28;8902;-65
2022/08/07 06:36:40;;;;;;;;;3.67;3.67;;;;;17.26;59.71;102683.44;5031801;28;8908;-65
2022/08/07 06:39:09;;;;;;;;;7.33;7.00;;;;;17.29;59.82;102688.47;5047223;28;9104;-64
2022/08/07 06:42:04;;;;;;;;;6.33;6.33;;;;;17.32;59.55;102689.13;5032551;28;9042;-64
2022/08/07 06:44:53;;;;;;;;;4.33;4.33;;;;;17.28;59.27;102691.41;5030143;28;9154;-64
2022/08/07 06:47:22;;;;;;;;;5.00;5.00;;;;;17.26;59.20;102694.34;5024793;28;9218;-64
2022/08/07 06:49:53;;;;;;;;;6.67;6.67;;;;;17.28;59.27;102702.28;5029378;28;8957;-64
2022/08/07 06:52:33;;;;;;;;;4.00;4.00;;;;;17.26;59.06;102704.38;5035989;28;9045;-65
2022/08/07 06:55:21;;;;;;;;;3.33;3.33;;;;;17.28;58.70;102710.47;5029254;28;9056;-65
2022/08/07 06:58:12;;;;;;;;;9.00;8.33;;;;;17.29;58.98;102699.38;5028938;28;9000;-64
2022/08/07 07:00:51;;;;;;;;;4.67;4.67;;;;;17.32;58.82;102694.59;5047706;28;9059;-66
2022/08/07 07:03:25;;;;;;;;;6.67;5.00;;;;;17.33;58.63;102690.81;5020810;28;9012;-65
2022/08/07 07:06:12;;;;;;;;;5.00;4.00;;;;;17.35;58.45;102688.75;5044752;28;8948;-66
2022/08/07 07:08:38;;;;;;;;;6.33;6.00;;;;;17.38;58.34;102691.06;5032201;28;8952;-65
2022/08/07 07:11:12;;;;;;;;;5.67;4.33;;;;;17.35;58.31;102686.88;5031688;28;9264;-64
2022/08/07 07:14:02;;;;;;;;;6.00;6.00;;;;;17.34;57.68;102685.19;5030138;28;8932;-65
2022/08/07 07:16:35;;;;;;;;;6.00;6.00;;;;;17.37;57.12;102689.41;5030120;28;8910;-65
2022/08/07 07:19:24;;;;;;;;;6.00;6.00;;;;;17.39;57.23;102690.91;5031256;28;9074;-64
2022/08/07 07:22:11;;;;;;;;;7.33;6.33;;;;;17.40;57.22;102678.13;5032732;28;8974;-63
2022/08/07 07:25:01;;;;;;;;;7.00;6.33;;;;;17.41;56.90;102686.09;5032934;28;9226;-65
2022/08/07 07:27:57;;;;;;;;;8.00;5.33;;;;;17.45;56.77;102692.00;5032508;28;9043;-65
2022/08/07 07:30:35;;;;;;;;;8.33;7.67;;;;;17.51;56.76;102693.94;5032582;28;9011;-64
2022/08/07 07:33:06;;;;;;;;;6.00;5.00;;;;;17.53;56.35;102689.97;5030575;28;8989;-65
2022/08/07 07:35:35;;;;;;;;;7.67;7.67;;;;;17.60;56.60;102687.31;5026971;28;9020;-65
2022/08/07 07:38:26;;;;;;;;;8.00;7.50;;;;;17.66;56.31;102683.81;5030194;28;9146;-65
2022/08/07 07:40:56;;;;;;;;;8.00;7.00;;;;;17.71;56.45;102692.25;5031428;28;8976;-64
2022/08/07 07:43:30;;;;;;;;;9.33;8.33;;;;;17.78;56.05;102681.41;5031960;28;8927;-65
2022/08/07 07:46:17;;;;;;;;;8.33;7.00;;;;;17.82;56.01;102687.31;5031706;28;9052;-65
2022/08/07 07:49:06;;;;;;;;;4.00;4.00;;;;;17.86;55.76;102672.25;5030838;28;9154;-65
2022/08/07 07:51:55;;;;;;;;;6.00;6.00;;;;;17.91;56.15;102677.97;5030530;28;8838;-68
2022/08/07 07:54:25;;;;;;;;;5.00;4.00;;;;;17.97;55.66;102674.44;5029831;28;8833;-65
2022/08/07 07:56:53;;;;;;;;;5.50;5.50;;;;;18.03;55.40;102676.38;5029868;28;8850;-66
2022/08/07 07:59:24;;;;;;;;;10.67;8.00;;;;;18.06;54.99;102675.13;5032871;28;8842;-66
2022/08/07 08:02:13;;;;;;;;;6.25;6.25;;;;;18.07;55.10;102668.63;5030394;28;9056;-67
2022/08/07 08:05:01;;;;;;;;;6.75;6.75;;;;;18.12;54.74;102672.47;5029990;28;8826;-67
2022/08/07 08:07:30;;;;;;;;;7.50;7.50;;;;;18.11;54.68;102664.47;5030020;28;8861;-66
2022/08/07 08:10:09;;;;;;;;;5.75;4.25;;;;;18.11;55.01;102667.19;5030018;28;8852;-65
2022/08/07 08:12:40;;;;;;;;;5.25;3.75;;;;;18.13;54.71;102673.28;5024227;28;8825;-66
2022/08/07 08:15:28;;;;;;;;;5.75;5.50;;;;;18.14;54.62;102672.25;5029565;28;8948;-68
2022/08/07 08:18:15;;;;;;;;;3.00;3.00;;;;;18.14;54.57;102666.78;5029560;28;8833;-66
2022/08/07 08:20:46;;;;;;;;;8.00;5.50;;;;;18.14;54.59;102654.00;5029854;28;8810;-67
2022/08/07 08:28:54;;;;;;;;;3.50;3.50;;;;;18.26;53.81;102659.72;5024516;28;9036;-67
2022/08/07 08:31:29;;;;;;;;;7.25;5.50;;;;;18.29;53.71;102662.06;5030209;28;8834;-67
2022/08/07 08:34:30;;;;;;;;;4.50;4.00;;;;;18.35;53.63;102661.28;5020382;28;8842;-66
2022/08/07 08:36:59;;;;;;;;;5.50;4.00;;;;;18.43;53.43;102668.41;5029826;28;8856;-66
2022/08/07 08:39:27;;;;;;;;;3.25;3.25;;;;;18.49;53.27;102663.00;5023985;28;8850;-66
2022/08/07 08:42:24;;;;;;;;;5.25;4.00;;;;;18.53;52.83;102658.84;5032162;28;8850;-67
2022/08/07 08:45:08;;;;;;;;;6.00;4.25;;;;;18.52;52.94;102665.34;5033971;28;8853;-66
2022/08/07 08:48:03;;;;;;;;;6.25;6.25;;;;;18.52;52.79;102656.31;5031838;28;8846;-66
2022/08/07 08:50:36;;;;;;;;;6.00;6.00;;;;;18.57;52.91;102662.00;5033401;28;8887;-66
2022/08/07 08:53:21;;;;;;;;;7.75;7.25;;;;;18.58;53.14;102650.03;5032607;28;8844;-65
2022/08/07 08:55:56;;;;;;;;;6.75;5.50;;;;;18.63;53.55;102652.16;5033181;28;8953;-66
2022/08/07 08:58:46;;;;;;;;;11.67;11.67;;;;;18.71;53.03;102661.03;5033140;28;8846;-66
2022/08/07 09:01:33;;;;;;;;;10.00;7.75;;;;;18.75;52.76;102658.75;5033137;28;8905;-66
2022/08/07 09:04:46;;;;;;;;;7.00;6.50;;;;;18.76;53.08;102657.72;5033072;28;8919;-67
2022/08/07 09:07:23;;;;;;;;;8.00;8.00;;;;;18.86;52.82;102665.50;5030528;28;8850;-66
2022/08/07 09:10:10;;;;;;;;;9.00;9.00;;;;;19.02;52.30;102662.41;5027665;28;8868;-66
2022/08/07 09:12:42;;;;;;;;;8.50;7.75;;;;;19.09;51.80;102657.81;5033146;28;8911;-65
2022/08/07 09:15:42;;;;;;;;;7.25;7.25;;;;;19.08;52.11;102658.84;5032972;28;8833;-65
2022/08/07 09:18:51;;;;;;;;;9.00;8.00;;;;;19.10;52.26;102664.94;5032737;28;8834;-65
2022/08/07 09:21:42;;;;;;;;;7.50;7.50;;;;;19.08;52.18;102656.13;5015996;28;8838;-66
2022/08/07 09:24:43;;;;;;;;;5.50;5.50;;;;;19.07;52.04;102650.84;5024418;28;8858;-65
2022/08/07 09:28:05;;;;;;;;;4.75;4.75;;;;;19.14;51.11;102655.28;5032547;28;8937;-65
2022/08/07 09:31:53;;;;;;;;;8.50;7.25;;;;;19.16;51.15;102653.22;5032728;28;8822;-66
2022/08/07 09:34:27;;;;;;;;;6.00;6.00;;;;;19.11;50.89;102644.78;5009207;28;8856;-67
2022/08/07 09:37:03;;;;;;;;;5.00;5.00;;;;;19.10;50.88;102650.44;5032464;28;8846;-67
2022/08/07 09:39:56;;;;;;;;;7.75;7.75;;;;;19.18;50.76;102652.97;5032547;28;8952;-66
2022/08/07 09:42:36;;;;;;;;;5.00;3.75;;;;;19.23;50.25;102647.72;5032597;28;8866;-65
2022/08/07 09:45:27;;;;;;;;;5.25;5.25;;;;;19.17;49.79;102648.59;5022318;28;9579;-65
2022/08/07 09:48:45;;;;;;;;;4.00;4.00;;;;;19.14;50.22;102644.38;5029978;28;8868;-65
2022/08/07 09:52:14;;;;;;;;;7.50;5.00;;;;;19.27;49.92;102633.44;5030992;28;8838;-66
2022/08/07 09:55:14;;;;;;;;;6.75;6.75;;;;;19.47;47.96;102629.91;5032170;28;8806;-65
2022/08/07 09:58:07;;;;;;;;;8.50;6.75;;;;;19.57;48.15;102629.47;5031881;28;8837;-66
2022/08/07 10:00:52;;;;;;;;;5.00;5.00;;;;;19.64;47.94;102624.88;5032149;28;8892;-66
2022/08/07 10:04:08;;;;;;;;;7.50;7.50;;;;;19.65;47.30;102619.22;5023240;28;9002;-66
2022/08/07 10:07:18;;;;;;;;;5.00;5.00;;;;;19.71;46.71;102623.81;5035378;28;8837;-67
2022/08/07 10:10:05;;;;;;;;;4.00;3.00;;;;;19.75;46.46;102618.78;5029140;28;9533;-67
2022/08/07 10:12:52;;;;;;;;;5.50;4.50;;;;;19.81;46.30;102607.00;5032289;28;8879;-67
2022/08/07 10:15:31;;;;;;;;;5.50;4.00;;;;;19.88;45.79;102602.34;5029612;28;8877;-67
2022/08/07 10:18:23;;;;;;;;;7.50;7.50;;;;;19.95;45.35;102608.66;5023576;28;9526;-67
2022/08/07 10:21:09;;;;;;;;;7.00;7.00;;;;;19.96;44.94;102606.75;5032033;28;8806;-67
2022/08/07 10:24:38;;;;;;;;;3.75;3.75;;;;;19.96;45.21;102604.84;5031409;28;8822;-66
2022/08/07 10:27:29;;;;;;;;;3.75;3.75;;;;;20.00;45.64;102605.28;5014109;28;8853;-67
2022/08/07 10:30:16;;;;;;;;;7.25;5.75;;;;;20.06;44.88;102589.94;5029724;28;8911;-67
2022/08/07 10:33:19;;;;;;;;;4.00;4.00;;;;;20.12;44.69;102600.81;5025647;28;8907;-67
2022/08/07 10:36:43;;;;;;;;;4.75;4.00;;;;;20.22;44.73;102594.91;5031594;28;8830;-67
2022/08/07 10:39:31;;;;;;;;;4.50;4.50;;;;;20.23;44.56;102583.75;5031533;28;8873;-67
2022/08/07 10:42:35;;;;;;;;;4.50;4.50;;;;;20.24;44.55;102590.91;5031778;28;8814;-67
2022/08/07 10:45:25;;;;;;;;;6.25;4.00;;;;;20.26;44.64;102579.75;5034956;28;8829;-67
2022/08/07 10:48:50;;;;;;;;;3.25;3.00;;;;;20.25;44.33;102573.44;5019144;28;8913;-67
2022/08/07 10:51:40;;;;;;;;;3.75;3.75;;;;;20.42;43.73;102576.53;5026655;28;8948;-65
2022/08/07 10:54:40;;;;;;;;;2.25;2.25;;;;;20.49;42.42;102571.03;5030809;28;8848;-66
2022/08/07 10:57:30;;;;;;;;;8.00;5.25;;;;;20.56;42.80;102571.84;5030916;28;8912;-66
2022/08/07 11:00:08;;;;;;;;;2.75;2.00;;;;;20.56;42.76;102569.13;5030825;28;9254;-65
2022/08/07 11:03:04;;;;;;;;;3.00;3.00;;;;;20.54;42.66;102568.50;5028639;28;8818;-66
2022/08/07 11:05:51;;;;;;;;;2.75;2.00;;;;;20.55;43.16;102556.50;5025970;28;8969;-65
2022/08/07 11:08:53;;;;;;;;;3.00;3.00;;;;;20.59;43.13;102563.22;5030524;28;8829;-66
2022/08/07 11:11:31;;;;;;;;;2.75;2.75;;;;;20.64;42.46;102551.59;5011219;28;8851;-66
2022/08/07 11:14:10;;;;;;;;;1.50;1.50;;;;;20.69;41.48;102552.63;5011932;28;9670;-66
2022/08/07 11:17:29;;;;;;;;;4.00;4.00;;;;;20.81;42.39;102552.75;5028975;28;8867;-66
2022/08/07 11:20:22;;;;;;;;;2.00;2.00;;;;;20.91;42.01;102558.59;5028080;28;8842;-66
2022/08/07 11:23:16;;;;;;;;;2.50;2.25;;;;;20.92;41.98;102546.56;5025414;28;8858;-67
2022/08/07 11:26:37;;;;;;;;;2.50;2.50;;;;;20.96;42.61;102541.50;5028793;28;8817;-66
2022/08/07 11:29:25;;;;;;;;;3.50;3.50;;;;;21.05;42.71;102553.84;5030360;28;8871;-66
2022/08/07 11:32:30;;;;;;;;;4.50;3.75;;;;;21.05;42.72;102547.53;5030458;28;8948;-65
2022/08/07 11:35:05;;;;;;;;;4.25;3.25;;;;;21.11;43.28;102550.22;5030560;28;8919;-64
2022/08/07 11:37:59;;;;;;;;;5.00;4.25;;;;;21.16;43.07;102555.03;5021679;28;8815;-65
2022/08/07 11:41:08;;;;;;;;;5.25;4.75;;;;;21.10;42.85;102544.94;5025292;28;8826;-65
2022/08/07 11:43:57;;;;;;;;;4.50;4.50;;;;;21.02;44.77;102546.06;5030166;28;8833;-65
2022/08/07 11:46:56;;;;;;;;;4.50;2.00;;;;;20.97;46.51;102543.16;5020433;28;8814;-65
2022/08/07 11:49:39;;;;;;;;;3.50;3.50;;;;;20.93;46.61;102537.28;5030013;28;8920;-66
2022/08/07 11:52:41;;;;;;;;;2.00;2.00;;;;;20.94;46.60;102535.38;5028562;28;8822;-68
2022/08/07 11:55:51;;;;;;;;;3.00;3.00;;;;;20.98;46.51;102526.53;5030353;28;8887;-67
2022/08/07 11:59:14;;;;;;;;;3.25;3.00;;;;;21.03;46.87;102528.59;5030111;28;8842;-67
2022/08/07 12:02:32;;;;;;;;;3.25;3.25;;;;;20.99;47.22;102527.38;5014027;28;8847;-67
2022/08/07 12:05:17;;;;;;;;;4.25;4.00;;;;;21.08;47.04;102528.75;5041225;28;8842;-67
2022/08/07 12:08:28;;;;;;;;;7.75;5.75;;;;;21.14;46.58;102525.09;5029767;28;8838;-69
2022/08/07 12:11:14;;;;;;;;;3.50;3.50;;;;;21.16;46.01;102527.66;5030025;28;8856;-66
2022/08/07 12:13:55;;;;;;;;;2.00;2.00;;;;;21.16;46.35;102524.91;5029428;28;8838;-66
2022/08/07 12:16:34;;;;;;;;;3.00;3.00;;;;;21.18;45.77;102517.28;5028274;28;8957;-66
2022/08/07 12:19:23;;;;;;;;;4.25;3.25;;;;;21.30;45.91;102517.41;5029896;28;8822;-66
2022/08/07 12:22:09;;;;;;;;;2.00;2.00;;;;;21.32;44.94;102527.09;5037479;28;9648;-66
2022/08/07 12:28:56;;;;;;;;;2.00;2.00;;;;;21.33;44.03;102516.97;5027860;28;8972;-66
2022/08/07 12:31:33;;;;;;;;;2.50;2.50;;;;;21.38;43.49;102514.41;5026492;28;8854;-66
2022/08/07 12:34:22;;;;;;;;;3.50;3.00;;;;;21.30;43.97;102511.91;5028114;28;8806;-66
2022/08/07 12:36:55;;;;;;;;;1.00;1.00;;;;;21.39;43.09;102510.59;5029790;28;8893;-66
2022/08/07 12:39:24;;;;;;;;;1.00;1.00;;;;;21.52;42.93;102512.38;5043966;28;8830;-66
2022/08/07 12:42:14;;;;;;;;;1.00;1.00;;;;;21.64;42.15;102516.88;5029714;28;8845;-66
2022/08/07 12:44:45;;;;;;;;;2.00;2.00;;;;;21.71;41.77;102512.16;5029734;28;9565;-66
2022/08/07 12:47:35;;;;;;;;;1.50;1.50;;;;;21.78;41.77;102519.47;5020375;28;8849;-66
2022/08/07 12:50:28;;;;;;;;;1.00;1.00;;;;;21.79;40.76;102516.47;5028416;28;8819;-66
2022/08/07 12:53:39;;;;;;;;;2.00;1.25;;;;;21.80;40.71;102512.69;5030097;28;8864;-66
2022/08/07 12:56:36;;;;;;;;;2.00;2.00;;;;;21.81;41.47;102505.31;5028535;28;8822;-66